Cassel, montagne d'un jour 2020

Epreuve sélectionnée:


15km - Résultats Scratch

Filtre:

Partants Général Top 5



Recherche:

N° dossard
Nom
Club
15km - Classement arrivée
Clt Athlète Nat. Club Temps Sexe Cat Lap1 Lap2 Fin lap2 Lap3
1 484 DEQUIDT Julien RCA 00:59:05 M (1e) Master 0 (1e) 00:11:59 (1e) 00:22:50 (3e) 00:34:49 (1e) 00:24:17 (3e) Partagez votre performance
2 883 STIEREMANS Pierre Halluin triathlon 01:00:47 M (2e) Senior (1e) 00:12:07 (2e) 00:24:02 (6e) 00:36:08 (2e) 00:24:39 (4e) Partagez votre performance
3 778 PARMENTIER Alban VAFA 01:01:36 M (3e) Master 0 (2e) 00:12:26 (5e) 00:23:58 (4e) 00:36:23 (3e) 00:25:13 (5e) Partagez votre performance
4 963 VRAUNAT Nicolas AS MARCK 01:02:15 M (4e) Master 0 (3e) 00:12:32 (6e) 00:24:01 (5e) 00:36:32 (4e) 00:25:43 (6e) Partagez votre performance
5 598 HINGRAND Corentin VAFA 01:03:50 M (5e) Senior (2e) 00:12:25 (4e) 00:24:50 (7e) 00:37:15 (5e) 00:26:36 (10e) Partagez votre performance
6 129 CATOIRE Bastien VAFA 01:04:03 M (6e) Senior (3e) 00:12:52 (7e) 00:25:07 (8e) 00:37:58 (6e) 00:26:06 (7e) Partagez votre performance
7 157 COLLET Nicolas Nicolas collet 01:04:28 M (7e) Master 0 (4e) 00:12:52 (8e) 00:25:07 (9e) 00:37:58 (7e) 00:26:30 (8e) Partagez votre performance
8 459 DELCOUR Thomas 01:04:55 M (8e) Senior (4e) 00:13:11 (13e) 00:25:11 (11e) 00:38:22 (8e) 00:26:33 (9e) Partagez votre performance
9 704 MAGQUIGNON Vincent MULTISPORT ACADEMY 01:05:42 M (9e) Master 2 (1e) 00:13:06 (11e) 00:25:35 (12e) 00:38:40 (11e) 00:27:03 (11e) Partagez votre performance
10 458 DELATTRE Pierre-Olivier TEAM POLICE HDFN 01:06:07 M (10e) Master 1 (1e) 00:13:13 (15e) 00:25:10 (10e) 00:38:23 (9e) 00:27:44 (16e) Partagez votre performance
11 875 SOUDAIN Matthieu 01:06:12 M (11e) Senior (5e) 00:12:56 (9e) 00:26:11 (14e) 00:39:07 (12e) 00:27:06 (12e) Partagez votre performance
12 861 SBARDELLA François Montreuil triathlon 01:06:41 M (12e) Senior (6e) 00:13:12 (14e) 00:25:55 (13e) 00:39:07 (13e) 00:27:34 (13e) Partagez votre performance
13 832 RIGAUT Jean-baptiste 01:07:10 M (13e) Senior (7e) 00:12:15 (3e) 00:26:21 (16e) 00:38:36 (10e) 00:28:35 (22e) Partagez votre performance
14 639 LANEEUW Jeremy LILLE MA 01:07:12 M (14e) Senior (8e) 00:13:02 (10e) 00:26:29 (19e) 00:39:31 (14e) 00:27:42 (15e) Partagez votre performance
15 210 DEGRAEVE Thomas TEAM POLICE HDFN 01:07:44 M (15e) Master 1 (2e) 00:13:35 (18e) 00:26:12 (15e) 00:39:46 (17e) 00:27:59 (18e) Partagez votre performance
16 628 KNOCKAERT Samuel ELAN 59 01:07:56 M (16e) Master 1 (3e) 00:13:06 (12e) 00:26:29 (18e) 00:39:34 (15e) 00:28:22 (20e) Partagez votre performance
17 770 OVIGNEUR BERTRAND Les Chtis Coureurs Flamands De Bavinchove 01:08:02 M (17e) Master 1 (4e) 00:13:14 (16e) 00:26:26 (17e) 00:39:39 (16e) 00:28:23 (21e) Partagez votre performance
18 992 RUBLIN Eric Unirun 01:08:29 M (18e) Master 2 (2e) 00:13:59 (28e) 00:26:57 (24e) 00:40:55 (21e) 00:27:34 (14e) Partagez votre performance
19 616 JAMET Loic 01:09:11 M (19e) Senior (9e) 00:14:08 (33e) 00:26:51 (22e) 00:40:58 (22e) 00:28:13 (19e) Partagez votre performance
20 551 FIEVET Romain OAH 01:09:24 M (20e) Master 0 (5e) 00:13:39 (19e) 00:26:54 (23e) 00:40:32 (18e) 00:28:52 (25e) Partagez votre performance
21 797 PETIT Maxence 01:09:43 M (21e) Senior (10e) 00:14:05 (32e) 00:27:49 (32e) 00:41:54 (32e) 00:27:50 (17e) Partagez votre performance
22 182 DE JAEGHER Benoit FLEURBAIX J'Y COURS 01:10:03 M (22e) Master 1 (5e) 00:13:52 (23e) 00:26:47 (21e) 00:40:38 (19e) 00:29:26 (42e) Partagez votre performance
23 488 DESASY Thomas FLEURBAIX J'Y COURS 01:10:04 M (23e) Master 0 (6e) 00:13:53 (24e) 00:26:47 (20e) 00:40:39 (20e) 00:29:25 (41e) Partagez votre performance
24 195 DECHERF Florian OAH 01:10:05 M (24e) Senior (11e) 00:13:50 (22e) 00:27:16 (25e) 00:41:06 (24e) 00:28:59 (29e) Partagez votre performance
25 208 DEGLIN Thomas Teteghem athletisme 01:10:10 M (25e) Master 1 (6e) 00:13:27 (17e) 00:27:33 (30e) 00:41:00 (23e) 00:29:10 (36e) Partagez votre performance
26 516 DOUTRELANT Mat 01:10:25 M (26e) Senior (12e) 00:14:10 (35e) 00:27:24 (27e) 00:41:33 (26e) 00:28:53 (26e) Partagez votre performance
27 614 INGELAERE Arnaud Running club hondschootois 01:10:28 M (27e) Master 1 (7e) 00:14:01 (29e) 00:27:47 (31e) 00:41:47 (29e) 00:28:41 (23e) Partagez votre performance
28 482 DEQUEKER Arnaud 01:10:34 M (28e) Senior (13e) 00:13:58 (27e) 00:27:27 (29e) 00:41:24 (25e) 00:29:11 (37e) Partagez votre performance
29 809 POPIEUL Rémi Unirun 01:10:40 M (29e) Junior (1e) 00:14:17 (38e) 00:27:21 (26e) 00:41:37 (27e) 00:29:03 (34e) Partagez votre performance
30 769 OVAERE Pierre ELAN 59 01:10:49 M (30e) Senior (14e) 00:14:27 (43e) 00:27:24 (28e) 00:41:50 (31e) 00:29:00 (31e) Partagez votre performance
31 185 DE POORTERE Tony Unirun 01:10:53 M (31e) Senior (15e) 00:14:04 (31e) 00:27:52 (33e) 00:41:55 (33e) 00:28:59 (28e) Partagez votre performance
32 131 CATTEAU Simon 01:11:21 M (32e) Senior (16e) 00:14:19 (39e) 00:28:03 (39e) 00:42:22 (36e) 00:29:00 (32e) Partagez votre performance
33 995 SAUVAGE Arnaud Lille triathlon 01:11:30 M (33e) Master 1 (8e) 00:13:49 (21e) 00:27:59 (36e) 00:41:47 (28e) 00:29:44 (47e) Partagez votre performance
34 57 BERTHELOT Sebastien FLEURBAIX J'Y COURS 01:11:34 M (34e) Master 1 (9e) 00:14:37 (51e) 00:27:58 (35e) 00:42:35 (38e) 00:29:00 (30e) Partagez votre performance
35 888 TABUTAUD Benoit 01:11:45 M (35e) Senior (17e) 00:13:55 (26e) 00:27:54 (34e) 00:41:49 (30e) 00:29:56 (51e) Partagez votre performance
36 720 MEAUX Sebastien 01:11:49 M (36e) Master 0 (7e) 00:14:34 (48e) 00:28:01 (37e) 00:42:34 (37e) 00:29:15 (40e) Partagez votre performance
37 903 TIRAN Clement Aa sport sante 01:11:56 M (37e) Senior (18e) 00:14:01 (30e) 00:28:01 (38e) 00:42:01 (34e) 00:29:56 (50e) Partagez votre performance
38 543 FASQUELLE François Aa santé sport 01:12:03 M (38e) Senior (19e) 00:14:23 (41e) 00:28:28 (45e) 00:42:50 (42e) 00:29:13 (38e) Partagez votre performance
39 160 COOLS Jonathan Cools jonathan 01:12:08 M (39e) Master 0 (8e) 00:14:47 (59e) 00:28:19 (41e) 00:43:06 (48e) 00:29:03 (33e) Partagez votre performance
40 713 BONZE gino 01:12:21 M (40e) Master 3 (1e) 00:13:45 (20e) 00:28:34 (48e) 00:42:19 (35e) 00:30:02 (52e) Partagez votre performance
41 485 DEQUIDT Yohann Mimo 01:12:24 M (41e) Master 0 (9e) 00:14:26 (42e) 00:28:23 (42e) 00:42:48 (41e) 00:29:37 (44e) Partagez votre performance
42 642 LARIVIÈRE Maxime 01:12:38 M (42e) Master 1 (10e) 00:14:33 (47e) 00:28:12 (40e) 00:42:45 (40e) 00:29:54 (49e) Partagez votre performance
43 622 JOSEPH Thomas Blaringhem trail 01:12:41 M (43e) Master 0 (10e) 00:14:35 (50e) 00:28:31 (47e) 00:43:05 (47e) 00:29:37 (45e) Partagez votre performance
44 326 GONZALEZ Anais VAFA 01:12:49 F (1e) Senior (1e) 00:15:09 (69e) 00:28:27 (44e) 00:43:35 (50e) 00:29:14 (39e) Partagez votre performance
45 826 RENAULT Rémi 01:12:51 M (44e) Senior (20e) 00:15:02 (65e) 00:28:43 (53e) 00:43:44 (53e) 00:29:08 (35e) Partagez votre performance
46 31 BAROIS Quentin ELAN 59 01:13:08 M (45e) Senior (21e) 00:13:54 (25e) 00:28:42 (52e) 00:42:36 (39e) 00:30:33 (63e) Partagez votre performance
47 796 PETIT Christophe 01:13:16 M (46e) Master 0 (11e) 00:14:22 (40e) 00:28:38 (49e) 00:42:59 (46e) 00:30:18 (54e) Partagez votre performance
48 707 MALENGE Alexandre Alexandre malenge 01:13:18 M (47e) Senior (22e) 00:14:10 (34e) 00:28:42 (50e) 00:42:51 (43e) 00:30:27 (60e) Partagez votre performance
49 753 NAUD Christophe FLEURBAIX J'Y COURS 01:13:19 M (48e) Master 2 (3e) 00:14:42 (55e) 00:29:09 (55e) 00:43:51 (55e) 00:29:29 (43e) Partagez votre performance
50 854 SALINGUE Geoffrey US ATHLETIQUES DE LIEVIN 01:13:22 M (49e) Master 1 (11e) 00:14:28 (45e) 00:28:26 (43e) 00:42:53 (44e) 00:30:30 (61e) Partagez votre performance
51 779 PASTANT Pierre Halluin triathlon 01:13:33 M (50e) Senior (23e) 00:14:39 (52e) 00:30:10 (78e) 00:44:49 (63e) 00:28:45 (24e) Partagez votre performance
52 926 VANDENRYSE Xavier Tl59 01:13:40 M (51e) Master 0 (12e) 00:14:16 (36e) 00:28:42 (51e) 00:42:57 (45e) 00:30:43 (65e) Partagez votre performance
53 163 CORNIL Mathieu 01:13:46 M (52e) Senior (24e) 00:14:46 (58e) 00:28:29 (46e) 00:43:14 (49e) 00:30:33 (62e)